createdAt,value
2018-06-30T00:01:27.271Z,6.10
2018-06-30T00:03:55.575Z,7.40
2018-06-30T00:06:24.382Z,6.10
2018-06-30T00:08:51.775Z,7.67
2018-06-30T00:11:19.103Z,6.50
2018-06-30T00:13:46.388Z,6.60
2018-06-30T00:16:13.662Z,8.80
2018-06-30T00:18:41.328Z,6.80
2018-06-30T00:21:09.267Z,7.70
2018-06-30T00:23:36.799Z,8.60
2018-06-30T00:26:04.272Z,5.90
2018-06-30T00:28:31.580Z,8.20
2018-06-30T00:30:58.859Z,6.13
2018-06-30T00:33:26.156Z,7.03
2018-06-30T00:35:53.672Z,7.37
2018-06-30T00:38:21.014Z,6.70
2018-06-30T00:40:48.272Z,6.30
2018-06-30T00:43:15.569Z,6.70
2018-06-30T00:45:42.899Z,7.70
2018-06-30T00:48:10.203Z,6.43
2018-06-30T00:50:37.520Z,7.37
2018-06-30T00:53:04.849Z,6.60
2018-06-30T00:55:32.344Z,7.50
2018-06-30T00:57:59.690Z,6.33
2018-06-30T01:00:26.959Z,7.33
2018-06-30T01:02:54.248Z,9.70
2018-06-30T01:05:21.534Z,10.90
2018-06-30T01:07:48.834Z,6.10
2018-06-30T01:10:17.384Z,7.43
2018-06-30T01:12:44.648Z,7.57
2018-06-30T01:15:11.933Z,6.23
2018-06-30T01:17:39.864Z,9.07
2018-06-30T01:20:07.160Z,8.50
2018-06-30T01:22:35.216Z,7.13
2018-06-30T01:25:02.516Z,7.17
2018-06-30T01:27:29.788Z,11.20
2018-06-30T01:29:57.145Z,7.10
2018-06-30T01:32:24.369Z,5.63
2018-06-30T01:34:51.631Z,6.67
2018-06-30T01:37:18.877Z,6.03
2018-06-30T01:39:46.137Z,5.17
2018-06-30T01:42:13.425Z,6.63
2018-06-30T01:44:41.504Z,5.80
2018-06-30T01:47:08.765Z,7.30
2018-06-30T01:49:36.226Z,5.00
2018-06-30T01:52:03.488Z,7.43
2018-06-30T01:54:30.753Z,5.90
2018-06-30T01:56:57.987Z,6.87
2018-06-30T01:59:25.286Z,4.90
2018-06-30T02:01:53.049Z,5.10
2018-06-30T02:04:20.303Z,6.73
2018-06-30T02:06:47.629Z,7.90
2018-06-30T02:09:14.955Z,6.43
2018-06-30T02:11:42.286Z,5.93
2018-06-30T02:14:09.852Z,8.60
2018-06-30T02:16:37.119Z,6.67
2018-06-30T02:19:04.400Z,5.07
2018-06-30T02:21:31.684Z,4.40
2018-06-30T02:23:59.089Z,5.47
2018-06-30T02:26:26.305Z,7.80
2018-06-30T02:28:54.512Z,5.23
2018-06-30T02:31:21.733Z,5.20
2018-06-30T02:33:49.021Z,6.40
2018-06-30T02:36:16.591Z,5.83
2018-06-30T02:38:43.873Z,5.90
2018-06-30T02:41:11.201Z,5.53
2018-06-30T02:43:38.479Z,6.33
2018-06-30T02:46:05.951Z,5.70
2018-06-30T02:48:33.065Z,6.00
2018-06-30T02:51:00.346Z,5.40
2018-06-30T02:53:27.773Z,5.97
2018-06-30T02:55:55.123Z,5.60
2018-06-30T02:58:22.382Z,6.20
2018-06-30T03:00:49.648Z,6.03
2018-06-30T03:03:16.962Z,6.77
2018-06-30T03:05:44.251Z,4.80
2018-06-30T03:08:11.537Z,7.10
2018-06-30T03:10:38.808Z,6.23
2018-06-30T03:13:06.103Z,5.73
2018-06-30T03:15:33.450Z,6.20
2018-06-30T03:18:00.737Z,6.90
2018-06-30T03:20:28.034Z,7.87
2018-06-30T03:22:55.289Z,7.47
2018-06-30T03:25:22.546Z,5.50
2018-06-30T03:27:49.833Z,9.40
2018-06-30T03:30:17.114Z,5.60
2018-06-30T03:32:44.458Z,6.10
2018-06-30T03:35:11.745Z,6.63
2018-06-30T03:37:39.069Z,7.30
2018-06-30T03:40:06.284Z,8.00
2018-06-30T03:42:33.541Z,10.20
2018-06-30T03:45:00.773Z,7.20
2018-06-30T03:47:27.985Z,6.60
2018-06-30T03:49:55.210Z,5.73
2018-06-30T03:52:22.494Z,6.67
2018-06-30T03:54:49.711Z,7.17
2018-06-30T03:57:16.954Z,5.20
2018-06-30T03:59:44.201Z,7.67
2018-06-30T04:02:11.494Z,6.00
2018-06-30T04:04:38.738Z,12.23
2018-06-30T04:07:06.001Z,6.73
2018-06-30T04:09:33.273Z,11.37
2018-06-30T04:12:00.512Z,13.20
2018-06-30T04:14:27.761Z,10.47
2018-06-30T04:16:55.018Z,7.80
2018-06-30T04:19:22.286Z,5.13
2018-06-30T04:21:49.545Z,11.80
2018-06-30T04:24:16.753Z,12.30
2018-06-30T04:26:44.128Z,8.80
2018-06-30T04:29:12.254Z,14.63
2018-06-30T04:31:39.512Z,9.17
2018-06-30T04:34:07.197Z,14.47
2018-06-30T04:36:34.551Z,13.87
2018-06-30T04:39:01.872Z,9.03
2018-06-30T04:41:29.389Z,8.77
2018-06-30T04:43:56.650Z,7.60
2018-06-30T04:46:23.973Z,7.93
2018-06-30T04:48:51.293Z,9.00
2018-06-30T04:51:18.641Z,9.23
2018-06-30T04:53:45.932Z,8.83
2018-06-30T04:56:13.185Z,5.43
2018-06-30T04:58:40.509Z,5.63
2018-06-30T05:01:07.808Z,6.37
2018-06-30T05:03:35.128Z,6.20
2018-06-30T05:06:02.421Z,9.40
2018-06-30T05:08:29.746Z,8.33
2018-06-30T05:10:57.105Z,6.73
2018-06-30T05:13:24.449Z,9.40
2018-06-30T05:15:51.836Z,8.77
2018-06-30T05:18:19.168Z,7.67
2018-06-30T05:20:46.473Z,5.23
2018-06-30T05:23:13.769Z,7.00
2018-06-30T05:25:41.196Z,14.97
2018-06-30T05:28:09.166Z,8.20
2018-06-30T05:30:36.490Z,11.80
2018-06-30T05:33:04.106Z,8.83
2018-06-30T05:35:31.403Z,7.33
2018-06-30T05:37:58.790Z,8.60
2018-06-30T05:40:26.098Z,10.53
2018-06-30T05:42:53.447Z,14.80
2018-06-30T05:45:20.733Z,9.20
2018-06-30T05:47:48.036Z,8.13
2018-06-30T05:50:15.358Z,6.13
2018-06-30T05:52:42.801Z,6.57
2018-06-30T05:55:10.122Z,8.10
2018-06-30T05:57:37.574Z,7.73
2018-06-30T06:00:04.958Z,9.23
2018-06-30T06:02:32.311Z,6.80
2018-06-30T06:04:59.578Z,7.50
2018-06-30T06:07:26.910Z,15.20
2018-06-30T06:09:54.202Z,7.30
2018-06-30T06:12:21.469Z,6.67
2018-06-30T06:14:48.818Z,11.77
2018-06-30T06:17:16.114Z,7.50
2018-06-30T06:19:43.877Z,8.10
2018-06-30T06:22:11.139Z,9.70
2018-06-30T06:24:38.546Z,7.90
2018-06-30T06:27:05.825Z,12.67
2018-06-30T06:29:33.106Z,9.40
2018-06-30T06:32:00.477Z,9.50
2018-06-30T06:34:27.759Z,7.10
2018-06-30T06:36:55.268Z,14.00
2018-06-30T06:39:22.573Z,7.13
2018-06-30T06:41:50.013Z,13.67
2018-06-30T06:44:17.328Z,7.03
2018-06-30T06:46:44.646Z,7.40
2018-06-30T06:49:11.928Z,6.97
2018-06-30T06:51:39.228Z,11.00
2018-06-30T06:54:06.554Z,7.53
2018-06-30T06:56:33.869Z,7.83
2018-06-30T06:59:01.137Z,11.20
2018-06-30T07:01:28.459Z,12.20
2018-06-30T07:03:55.769Z,7.50
2018-06-30T07:06:23.101Z,12.00
2018-06-30T07:08:50.446Z,6.77
2018-06-30T07:11:17.740Z,11.77
2018-06-30T07:13:45.037Z,6.20
2018-06-30T07:16:12.325Z,8.27
2018-06-30T07:18:39.705Z,11.60
2018-06-30T07:21:07.078Z,13.97
2018-06-30T07:23:34.422Z,8.90
2018-06-30T07:26:01.819Z,6.03
2018-06-30T07:28:29.111Z,10.10
2018-06-30T07:30:56.557Z,7.20
2018-06-30T07:33:23.669Z,9.80
2018-06-30T07:35:50.951Z,10.37
2018-06-30T07:38:18.243Z,11.07
2018-06-30T07:40:45.489Z,6.77
2018-06-30T07:43:12.770Z,14.80
2018-06-30T07:45:40.053Z,9.13
2018-06-30T07:48:07.382Z,7.80
2018-06-30T07:50:34.950Z,10.00
2018-06-30T07:53:02.269Z,10.53
2018-06-30T07:55:30.129Z,11.33
2018-06-30T07:57:57.460Z,10.90
2018-06-30T08:00:24.748Z,7.20
2018-06-30T08:02:52.073Z,11.67
2018-06-30T08:05:19.443Z,9.10
2018-06-30T08:07:46.696Z,7.37
2018-06-30T08:10:14.136Z,17.90
2018-06-30T08:12:41.430Z,7.10
2018-06-30T08:15:08.844Z,8.27
2018-06-30T08:17:38.077Z,8.90
2018-06-30T08:20:05.589Z,10.23
2018-06-30T08:22:32.905Z,10.53
2018-06-30T08:25:00.240Z,10.70
2018-06-30T08:27:27.609Z,7.50
2018-06-30T08:29:54.981Z,11.70
2018-06-30T08:32:22.237Z,9.70
2018-06-30T08:34:49.641Z,10.30
2018-06-30T08:37:17.029Z,9.03
2018-06-30T08:39:44.350Z,7.53
2018-06-30T08:42:11.602Z,11.30
2018-06-30T08:44:38.931Z,8.63
2018-06-30T08:47:06.218Z,8.57
2018-06-30T08:49:33.481Z,9.90
2018-06-30T08:52:00.909Z,8.43
2018-06-30T08:54:28.233Z,8.03
2018-06-30T08:56:56.159Z,9.43
2018-06-30T08:59:23.425Z,8.53
2018-06-30T09:01:50.726Z,8.50
2018-06-30T09:04:18.023Z,8.23
2018-06-30T09:06:45.307Z,9.67
2018-06-30T09:09:12.650Z,11.10
2018-06-30T09:11:40.366Z,13.97
2018-06-30T09:14:07.817Z,9.43
2018-06-30T09:16:35.122Z,8.20
2018-06-30T09:19:02.400Z,11.70
2018-06-30T09:21:29.685Z,15.80
2018-06-30T09:23:56.973Z,14.13
2018-06-30T09:26:24.278Z,10.80
2018-06-30T09:28:51.562Z,12.27
2018-06-30T09:31:18.861Z,12.77
2018-06-30T09:33:46.143Z,10.70
2018-06-30T09:36:13.470Z,13.27
2018-06-30T09:38:40.758Z,9.50
2018-06-30T09:41:08.152Z,9.97
2018-06-30T09:43:35.437Z,8.30
2018-06-30T09:46:02.769Z,8.60
2018-06-30T09:48:30.150Z,10.70
2018-06-30T09:50:57.475Z,12.43
2018-06-30T09:53:24.770Z,10.23
2018-06-30T09:55:52.135Z,11.03
2018-06-30T09:58:19.497Z,10.60
2018-06-30T10:00:49.866Z,10.50
2018-06-30T10:03:17.188Z,10.73
2018-06-30T10:05:44.577Z,10.50
2018-06-30T10:08:11.953Z,11.17
2018-06-30T10:10:39.277Z,9.93
2018-06-30T10:13:06.526Z,12.00
2018-06-30T10:15:33.881Z,11.07
2018-06-30T10:18:01.220Z,9.90
2018-06-30T10:20:28.553Z,17.60
2018-06-30T10:22:55.910Z,14.13
2018-06-30T10:25:23.222Z,12.40
2018-06-30T10:27:50.487Z,14.10
2018-06-30T10:30:17.868Z,11.67
2018-06-30T10:32:45.166Z,11.60
2018-06-30T10:35:12.467Z,14.37
2018-06-30T10:37:39.853Z,16.63
2018-06-30T10:40:07.118Z,11.03
2018-06-30T10:42:34.409Z,10.47
2018-06-30T10:45:01.683Z,11.90
2018-06-30T10:47:29.006Z,10.10
2018-06-30T10:49:56.296Z,11.83
2018-06-30T10:52:23.594Z,16.23
2018-06-30T10:54:50.948Z,11.60
2018-06-30T10:57:18.487Z,11.97
2018-06-30T10:59:45.866Z,10.67
2018-06-30T11:02:13.149Z,10.60
2018-06-30T11:04:40.429Z,12.60
2018-06-30T11:07:07.710Z,19.80
2018-06-30T11:09:35.027Z,10.83
2018-06-30T11:12:02.395Z,9.27
2018-06-30T11:14:30.069Z,8.60
2018-06-30T11:16:57.441Z,9.00
2018-06-30T11:19:24.810Z,9.37
2018-06-30T11:21:52.188Z,9.17
2018-06-30T11:24:19.473Z,10.70
2018-06-30T11:26:46.741Z,12.90
2018-06-30T11:29:14.029Z,8.47
2018-06-30T11:31:41.288Z,9.83
2018-06-30T11:34:08.594Z,9.10
2018-06-30T11:36:35.913Z,11.13
2018-06-30T11:39:05.798Z,8.80
2018-06-30T11:41:33.125Z,13.37
2018-06-30T11:44:00.392Z,15.43
2018-06-30T11:46:27.697Z,14.10
2018-06-30T11:48:54.988Z,8.27
2018-06-30T11:51:22.269Z,8.43
2018-06-30T11:53:49.568Z,7.97
2018-06-30T11:56:16.973Z,8.90
2018-06-30T11:58:44.290Z,8.50
2018-06-30T12:01:11.632Z,8.53
2018-06-30T12:03:38.971Z,8.07
2018-06-30T12:06:06.332Z,10.07
2018-06-30T12:08:33.650Z,6.90
2018-06-30T12:11:01.043Z,7.50
2018-06-30T12:13:28.342Z,8.53
2018-06-30T12:15:55.866Z,8.00
2018-06-30T12:18:23.280Z,9.87
2018-06-30T12:20:50.669Z,6.93
2018-06-30T12:23:17.942Z,7.47
2018-06-30T12:25:45.223Z,6.87
2018-06-30T12:28:12.584Z,13.80
2018-06-30T12:30:39.865Z,6.20
2018-06-30T12:33:07.293Z,6.77
2018-06-30T12:35:34.642Z,6.83
2018-06-30T12:38:01.893Z,9.53
2018-06-30T12:40:29.190Z,9.03
2018-06-30T12:42:56.549Z,6.90
2018-06-30T12:45:23.875Z,8.73
2018-06-30T12:47:51.133Z,7.17
2018-06-30T12:50:18.424Z,6.00
2018-06-30T12:52:45.734Z,9.13
2018-06-30T12:55:13.074Z,6.57
2018-06-30T12:57:40.332Z,10.63
2018-06-30T13:00:07.741Z,8.27
2018-06-30T13:02:35.013Z,10.00
2018-06-30T13:05:02.440Z,6.63
2018-06-30T13:07:29.720Z,8.40
2018-06-30T13:09:57.116Z,8.93
2018-06-30T13:12:24.400Z,6.30
2018-06-30T13:14:51.725Z,5.60
2018-06-30T13:17:19.104Z,6.93
2018-06-30T13:19:46.388Z,6.80
2018-06-30T13:22:13.676Z,6.30
2018-06-30T13:24:40.978Z,6.70
2018-06-30T13:27:08.366Z,5.90
2018-06-30T13:29:35.807Z,13.20
2018-06-30T13:32:03.211Z,6.47
2018-06-30T13:34:30.549Z,6.30
2018-06-30T13:36:57.925Z,6.50
2018-06-30T13:39:25.313Z,5.53
2018-06-30T13:41:52.619Z,6.00
2018-06-30T13:44:19.993Z,4.97
2018-06-30T13:46:47.482Z,5.87
2018-06-30T13:49:14.861Z,5.63
2018-06-30T13:51:42.256Z,5.30
2018-06-30T13:54:09.669Z,5.20
2018-06-30T13:56:37.144Z,9.50
2018-06-30T13:59:04.537Z,5.83
2018-06-30T14:01:32.009Z,9.60
2018-06-30T14:03:59.517Z,5.20
2018-06-30T14:06:26.954Z,5.70
2018-06-30T14:08:54.510Z,4.57
2018-06-30T14:11:21.921Z,10.90
2018-06-30T14:13:49.457Z,10.27
2018-06-30T14:16:16.901Z,5.20
2018-06-30T14:18:44.428Z,7.53
2018-06-30T14:21:11.761Z,5.67
2018-06-30T14:23:39.194Z,6.50
2018-06-30T14:26:06.516Z,3.80
2018-06-30T14:28:33.887Z,3.33
2018-06-30T14:31:01.165Z,3.20
2018-06-30T14:33:28.441Z,8.33
2018-06-30T14:35:55.753Z,5.23
2018-06-30T14:38:23.138Z,3.37
2018-06-30T14:40:50.438Z,3.00
2018-06-30T14:43:17.745Z,8.00
2018-06-30T14:45:45.153Z,2.80
2018-06-30T14:48:12.430Z,3.93
2018-06-30T14:50:39.713Z,2.33
2018-06-30T14:53:07.040Z,4.43
2018-06-30T14:55:34.263Z,4.93
2018-06-30T14:58:01.511Z,3.83
2018-06-30T15:00:28.785Z,1.80
2018-06-30T15:02:56.077Z,3.30
2018-06-30T15:05:23.332Z,3.33
2018-06-30T15:07:50.552Z,1.33
2018-06-30T15:10:17.873Z,2.43
2018-06-30T15:12:45.165Z,1.57
2018-06-30T15:15:12.397Z,4.20
2018-06-30T15:17:39.778Z,2.30
2018-06-30T15:20:07.120Z,5.47
2018-06-30T15:22:34.433Z,1.37
2018-06-30T15:25:01.793Z,3.70
2018-06-30T15:27:29.102Z,1.20
2018-06-30T15:29:56.346Z,5.03
2018-06-30T15:32:23.630Z,2.93
2018-06-30T15:34:50.860Z,0.90
2018-06-30T15:37:18.072Z,7.03
2018-06-30T15:39:45.367Z,1.00
2018-06-30T15:42:12.621Z,1.20
2018-06-30T15:44:39.911Z,0.80
2018-06-30T15:47:07.155Z,0.80
2018-06-30T15:49:34.394Z,5.60
2018-06-30T15:52:01.700Z,1.40
2018-06-30T15:54:28.926Z,2.70
2018-06-30T15:56:56.185Z,4.20
2018-06-30T15:59:23.457Z,2.20
2018-06-30T16:01:50.866Z,0.80
2018-06-30T16:04:18.112Z,3.90
2018-06-30T16:06:45.427Z,4.73
2018-06-30T16:09:12.710Z,0.93
2018-06-30T16:11:40.142Z,0.90
2018-06-30T16:14:08.228Z,4.37
2018-06-30T16:16:35.531Z,1.80
2018-06-30T16:19:02.912Z,5.30
2018-06-30T16:21:30.160Z,3.60
2018-06-30T16:23:57.413Z,1.53
2018-06-30T16:26:24.675Z,1.00
2018-06-30T16:28:52.166Z,1.20
2018-06-30T16:31:19.439Z,1.70
2018-06-30T16:33:46.761Z,1.07
2018-06-30T16:36:14.072Z,0.80
2018-06-30T16:38:41.357Z,2.00
2018-06-30T16:41:08.609Z,0.83
2018-06-30T16:43:36.001Z,1.83
2018-06-30T16:46:03.286Z,1.00
2018-06-30T16:48:30.541Z,5.03
2018-06-30T16:50:57.796Z,3.40
2018-06-30T16:53:25.143Z,2.40
2018-06-30T16:55:52.425Z,2.53
2018-06-30T16:58:19.706Z,2.17
2018-06-30T17:00:46.989Z,6.33
2018-06-30T17:03:14.248Z,0.97
2018-06-30T17:05:41.494Z,1.43
2018-06-30T17:08:08.894Z,1.03
2018-06-30T17:10:36.189Z,3.20
2018-06-30T17:13:03.481Z,2.43
2018-06-30T17:15:30.802Z,1.40
2018-06-30T17:17:58.038Z,1.77
2018-06-30T17:20:25.354Z,2.00
2018-06-30T17:22:52.700Z,0.67
2018-06-30T17:25:19.945Z,1.63
2018-06-30T17:27:47.221Z,1.03
2018-06-30T17:30:14.467Z,1.43
2018-06-30T17:32:41.705Z,4.20
2018-06-30T17:35:08.945Z,1.33
2018-06-30T17:37:36.202Z,5.63
2018-06-30T17:40:03.749Z,3.13
2018-06-30T17:42:30.984Z,2.80
2018-06-30T17:44:58.229Z,2.10
2018-06-30T17:47:25.455Z,6.20
2018-06-30T17:49:52.738Z,1.40
2018-06-30T17:52:20.384Z,2.20
2018-06-30T17:54:47.602Z,2.60
2018-06-30T17:57:14.844Z,2.40
2018-06-30T17:59:42.070Z,3.53
2018-06-30T18:02:09.325Z,2.00
2018-06-30T18:04:37.204Z,1.00
2018-06-30T18:07:04.492Z,3.80
2018-06-30T18:09:31.839Z,2.67
2018-06-30T18:11:59.106Z,2.10
2018-06-30T18:14:26.456Z,2.20
2018-06-30T18:16:53.759Z,2.70
2018-06-30T18:19:21.127Z,5.40
2018-06-30T18:21:49.158Z,2.90
2018-06-30T18:24:16.457Z,3.00
2018-06-30T18:26:43.712Z,8.47
2018-06-30T18:29:10.999Z,3.03
2018-06-30T18:31:38.561Z,1.87
2018-06-30T18:34:05.926Z,3.53
2018-06-30T18:36:33.305Z,3.13
2018-06-30T18:39:00.653Z,1.70
2018-06-30T18:41:27.985Z,2.20
2018-06-30T18:43:55.271Z,6.10
2018-06-30T18:46:22.595Z,3.07
2018-06-30T18:48:49.901Z,2.70
2018-06-30T18:51:17.294Z,2.23
2018-06-30T18:53:44.572Z,10.23
2018-06-30T18:56:11.943Z,3.43
2018-06-30T18:58:39.208Z,1.70
2018-06-30T19:01:06.538Z,1.80
2018-06-30T19:03:33.830Z,1.50
2018-06-30T19:06:01.121Z,1.80
2018-06-30T19:08:28.409Z,6.00
2018-06-30T19:10:55.646Z,1.53
2018-06-30T19:13:22.925Z,1.40
2018-06-30T19:15:50.379Z,1.77
2018-06-30T19:18:17.614Z,5.43
2018-06-30T19:20:44.881Z,7.90
2018-06-30T19:23:12.140Z,9.30
2018-06-30T19:25:39.393Z,6.80
2018-06-30T19:28:06.682Z,3.60
2018-06-30T19:30:33.913Z,3.20
2018-06-30T19:33:01.185Z,4.80
2018-06-30T19:35:28.450Z,6.00
2018-06-30T19:37:55.750Z,1.93
2018-06-30T19:40:22.997Z,1.50
2018-06-30T19:42:50.394Z,2.33
2018-06-30T19:45:17.713Z,1.83
2018-06-30T19:47:45.090Z,4.10
2018-06-30T19:50:12.341Z,6.73
2018-06-30T19:52:39.576Z,2.13
2018-06-30T19:55:06.832Z,3.37
2018-06-30T19:57:34.117Z,8.13
2018-06-30T20:00:01.381Z,4.97
2018-06-30T20:02:28.622Z,8.13
2018-06-30T20:04:55.896Z,3.63
2018-06-30T20:07:23.193Z,1.80
2018-06-30T20:09:50.489Z,1.20
2018-06-30T20:12:17.792Z,2.17
2018-06-30T20:14:45.141Z,3.00
2018-06-30T20:17:12.528Z,5.50
2018-06-30T20:19:39.848Z,6.27
2018-06-30T20:22:07.112Z,1.83
2018-06-30T20:24:34.381Z,1.50
2018-06-30T20:27:01.815Z,2.10
2018-06-30T20:29:29.125Z,1.60
2018-06-30T20:31:56.450Z,1.37
2018-06-30T20:34:23.726Z,3.43
2018-06-30T20:36:51.039Z,4.60
2018-06-30T20:39:18.335Z,1.50
2018-06-30T20:41:45.604Z,3.17
2018-06-30T20:44:12.890Z,1.60
2018-06-30T20:46:40.176Z,1.17
2018-06-30T20:49:07.440Z,1.27
2018-06-30T20:51:34.721Z,5.17
2018-06-30T20:54:02.008Z,4.50
2018-06-30T20:56:29.340Z,4.70
2018-06-30T20:58:56.629Z,1.50
2018-06-30T21:01:23.859Z,1.33
2018-06-30T21:03:51.157Z,5.80
2018-06-30T21:06:18.473Z,4.30
2018-06-30T21:08:45.706Z,2.97
2018-06-30T21:11:12.950Z,2.73
2018-06-30T21:13:40.309Z,6.77
2018-06-30T21:16:08.421Z,2.13
2018-06-30T21:18:35.690Z,4.40
2018-06-30T21:21:02.958Z,8.77
2018-06-30T21:23:30.243Z,3.23
2018-06-30T21:25:57.465Z,6.63
2018-06-30T21:28:24.809Z,5.17
2018-06-30T21:30:52.072Z,1.27
2018-06-30T21:33:19.348Z,1.47
2018-06-30T21:35:46.698Z,1.57
2018-06-30T21:38:13.908Z,1.80
2018-06-30T21:40:41.189Z,2.10
2018-06-30T21:43:08.483Z,2.03
2018-06-30T21:45:35.705Z,1.67
2018-06-30T21:48:02.993Z,1.20
2018-06-30T21:50:30.264Z,2.00
2018-06-30T21:52:57.542Z,3.00
2018-06-30T21:55:24.777Z,2.83
2018-06-30T21:57:52.096Z,6.53
2018-06-30T22:00:30.353Z,2.83
2018-06-30T22:02:57.578Z,1.27
2018-06-30T22:05:24.794Z,2.90
2018-06-30T22:07:52.013Z,2.87
2018-06-30T22:10:19.361Z,1.97
2018-06-30T22:12:46.646Z,5.20
2018-06-30T22:15:13.990Z,1.50
2018-06-30T22:17:41.261Z,3.63
2018-06-30T22:20:08.577Z,2.43
2018-06-30T22:22:35.918Z,2.17
2018-06-30T22:25:03.254Z,1.67
2018-06-30T22:27:30.540Z,1.90
2018-06-30T22:29:57.786Z,8.70
2018-06-30T22:32:25.157Z,1.50
2018-06-30T22:34:52.462Z,1.03
2018-06-30T22:37:19.741Z,2.00
2018-06-30T22:39:52.797Z,3.10
2018-06-30T22:42:20.049Z,2.50
2018-06-30T22:44:47.331Z,3.23
2018-06-30T22:47:14.795Z,3.80
2018-06-30T22:49:42.014Z,2.67
2018-06-30T22:52:09.345Z,3.23
2018-06-30T22:54:36.607Z,4.30
2018-06-30T22:57:03.963Z,10.10
2018-06-30T22:59:31.214Z,1.50
2018-06-30T23:01:58.518Z,2.20
2018-06-30T23:04:25.765Z,2.57
2018-06-30T23:06:53.040Z,1.33
2018-06-30T23:09:20.287Z,3.00
2018-06-30T23:11:47.538Z,2.20
2018-06-30T23:14:14.833Z,2.20
2018-06-30T23:16:42.094Z,3.43
2018-06-30T23:19:09.403Z,1.73
2018-06-30T23:21:36.707Z,4.23
2018-06-30T23:24:04.003Z,1.20
2018-06-30T23:26:31.301Z,3.30
2018-06-30T23:28:58.640Z,3.40
2018-06-30T23:31:25.890Z,2.37
2018-06-30T23:33:53.204Z,2.07
2018-06-30T23:36:20.474Z,3.33
2018-06-30T23:38:47.752Z,2.77
2018-06-30T23:41:15.017Z,1.47
2018-06-30T23:43:42.305Z,1.50
2018-06-30T23:46:09.564Z,2.33
2018-06-30T23:48:36.850Z,1.87
2018-06-30T23:51:04.136Z,2.23
2018-06-30T23:53:31.427Z,4.07
2018-06-30T23:55:58.669Z,3.77
2018-06-30T23:58:25.945Z,1.67
